createdAt,value
2019-02-18T00:01:24.769Z,11.35
2019-02-18T00:03:57.967Z,13.48
2019-02-18T00:06:30.538Z,13.30
2019-02-18T00:09:04.357Z,11.15
2019-02-18T00:11:39.999Z,14.15
2019-02-18T00:14:13.143Z,13.70
2019-02-18T00:16:46.919Z,15.23
2019-02-18T00:19:20.578Z,11.53
2019-02-18T00:21:53.701Z,13.32
2019-02-18T00:24:26.675Z,13.78
2019-02-18T00:26:59.811Z,12.00
2019-02-18T00:29:33.190Z,13.75
2019-02-18T00:32:06.670Z,15.20
2019-02-18T00:34:40.451Z,12.78
2019-02-18T00:37:13.510Z,15.50
2019-02-18T00:39:46.950Z,14.83
2019-02-18T00:42:19.644Z,13.05
2019-02-18T00:44:53.509Z,10.40
2019-02-18T00:47:26.432Z,12.90
2019-02-18T00:49:59.057Z,14.38
2019-02-18T00:52:32.001Z,13.35
2019-02-18T00:55:05.591Z,11.12
2019-02-18T00:57:38.662Z,13.00
2019-02-18T01:00:12.152Z,15.55
2019-02-18T01:02:45.259Z,11.73
2019-02-18T01:05:19.249Z,12.80
2019-02-18T01:07:52.400Z,12.65
2019-02-18T01:10:25.464Z,12.30
2019-02-18T01:12:58.889Z,13.50
2019-02-18T01:15:32.774Z,12.80
2019-02-18T01:18:05.501Z,13.95
2019-02-18T01:20:38.870Z,10.58
2019-02-18T01:23:12.661Z,12.68
2019-02-18T01:25:45.731Z,12.33
2019-02-18T01:28:19.437Z,12.60
2019-02-18T01:30:52.954Z,14.70
2019-02-18T01:33:26.750Z,12.65
2019-02-18T01:35:59.788Z,16.55
2019-02-18T01:38:32.715Z,12.82
2019-02-18T01:41:06.561Z,13.35
2019-02-18T01:43:40.317Z,14.85
2019-02-18T01:46:13.772Z,12.47
2019-02-18T01:48:46.651Z,14.75
2019-02-18T01:51:20.423Z,12.47
2019-02-18T01:53:53.827Z,13.00
2019-02-18T01:56:27.818Z,10.38
2019-02-18T01:59:01.228Z,12.63
2019-02-18T02:01:35.146Z,13.35
2019-02-18T02:04:08.861Z,16.40
2019-02-18T02:06:41.822Z,11.80
2019-02-18T02:09:15.430Z,11.53
2019-02-18T02:11:48.695Z,13.80
2019-02-18T02:14:22.045Z,13.85
2019-02-18T02:16:55.855Z,12.68
2019-02-18T02:19:29.339Z,13.62
2019-02-18T02:22:02.915Z,14.53
2019-02-18T02:24:35.932Z,11.03
2019-02-18T02:27:09.228Z,13.22
2019-02-18T02:29:42.570Z,12.70
2019-02-18T02:32:14.895Z,13.30
2019-02-18T02:34:47.663Z,10.43
2019-02-18T02:37:20.952Z,11.90
2019-02-18T02:39:54.025Z,14.33
2019-02-18T02:42:27.324Z,11.08
2019-02-18T02:45:01.094Z,11.40
2019-02-18T02:47:34.958Z,17.42
2019-02-18T02:50:07.867Z,11.65
2019-02-18T02:52:41.589Z,12.47
2019-02-18T02:55:15.162Z,11.43
2019-02-18T02:57:48.138Z,10.82
2019-02-18T03:00:21.421Z,14.98
2019-02-18T03:02:54.520Z,11.48
2019-02-18T03:05:28.220Z,11.88
2019-02-18T03:08:01.353Z,11.93
2019-02-18T03:10:34.391Z,9.58
2019-02-18T03:13:07.390Z,9.95
2019-02-18T03:15:40.270Z,12.23
2019-02-18T03:18:13.667Z,10.95
2019-02-18T03:20:46.993Z,13.15
2019-02-18T03:23:20.635Z,9.28
2019-02-18T03:25:54.190Z,12.05
2019-02-18T03:29:30.353Z,10.05
2019-02-18T03:32:04.176Z,9.35
2019-02-18T03:34:42.345Z,13.80
2019-02-18T03:37:15.268Z,11.15
2019-02-18T03:39:48.112Z,13.55
2019-02-18T03:42:21.124Z,9.45
2019-02-18T03:44:54.501Z,11.22
2019-02-18T03:47:27.841Z,9.63
2019-02-18T03:50:00.957Z,10.80
2019-02-18T03:52:35.070Z,9.48
2019-02-18T03:55:08.520Z,11.53
2019-02-18T03:57:41.496Z,12.40
2019-02-18T04:00:14.210Z,12.98
2019-02-18T04:02:48.564Z,10.80
2019-02-18T04:05:22.330Z,9.98
2019-02-18T04:07:54.510Z,12.82
2019-02-18T04:10:27.060Z,10.82
2019-02-18T04:13:00.586Z,14.05
2019-02-18T04:15:34.046Z,15.13
2019-02-18T04:18:07.653Z,11.70
2019-02-18T04:20:41.026Z,11.03
2019-02-18T04:23:15.001Z,13.48
2019-02-18T04:25:49.381Z,15.65
2019-02-18T04:28:23.824Z,13.72
2019-02-18T04:30:57.301Z,13.32
2019-02-18T04:33:31.105Z,15.68
2019-02-18T04:36:04.419Z,12.00
2019-02-18T04:38:37.589Z,16.15
2019-02-18T04:41:10.901Z,13.72
2019-02-18T04:43:45.601Z,14.40
2019-02-18T04:46:18.216Z,16.15
2019-02-18T04:48:51.589Z,17.40
2019-02-18T04:51:24.330Z,17.00
2019-02-18T04:53:58.105Z,16.52
2019-02-18T04:56:31.798Z,17.92
2019-02-18T04:59:04.520Z,16.67
2019-02-18T05:01:37.135Z,15.70
2019-02-18T05:04:10.023Z,19.37
2019-02-18T05:06:43.036Z,19.32
2019-02-18T05:09:16.759Z,15.48
2019-02-18T05:11:49.469Z,18.30
2019-02-18T05:14:22.882Z,17.60
2019-02-18T05:16:56.580Z,17.55
2019-02-18T05:19:30.193Z,15.23
2019-02-18T05:22:03.358Z,16.20
2019-02-18T05:24:37.158Z,13.75
2019-02-18T05:27:10.499Z,18.82
2019-02-18T05:29:43.213Z,14.35
2019-02-18T05:32:16.403Z,17.73
2019-02-18T05:34:49.350Z,17.37
2019-02-18T05:37:22.754Z,14.30
2019-02-18T05:39:56.088Z,11.50
2019-02-18T05:42:30.255Z,14.45
2019-02-18T05:45:05.849Z,15.15
2019-02-18T05:47:38.829Z,13.22
2019-02-18T05:50:12.411Z,22.80
2019-02-18T05:52:47.140Z,13.35
2019-02-18T05:55:20.560Z,17.92
2019-02-18T05:57:53.167Z,14.18
2019-02-18T06:00:26.913Z,18.67
2019-02-18T06:03:00.723Z,16.55
2019-02-18T06:05:34.629Z,16.87
2019-02-18T06:08:07.778Z,22.07
2019-02-18T06:10:43.591Z,16.75
2019-02-18T06:13:16.191Z,19.42
2019-02-18T06:15:49.132Z,14.13
2019-02-18T06:18:22.413Z,14.78
2019-02-18T06:20:55.419Z,15.72
2019-02-18T06:23:28.919Z,18.73
2019-02-18T06:26:01.934Z,19.42
2019-02-18T06:28:35.419Z,17.65
2019-02-18T06:31:09.205Z,16.30
2019-02-18T06:33:42.825Z,18.25
2019-02-18T06:36:15.810Z,17.37
2019-02-18T06:38:49.306Z,22.90
2019-02-18T06:41:23.785Z,19.62
2019-02-18T06:43:57.120Z,23.65
2019-02-18T06:46:33.178Z,21.33
2019-02-18T06:49:09.813Z,18.80
2019-02-18T06:51:42.745Z,20.50
2019-02-18T06:54:15.817Z,22.85
2019-02-18T06:57:17.687Z,22.90
2019-02-18T07:00:02.076Z,22.05
2019-02-18T07:02:52.380Z,23.30
2019-02-18T07:06:03.028Z,20.30
2019-02-18T07:08:56.223Z,24.25
2019-02-18T07:11:39.898Z,28.32
2019-02-18T07:14:13.713Z,27.50
2019-02-18T07:16:47.773Z,24.02
2019-02-18T07:19:21.488Z,24.98
2019-02-18T07:21:54.535Z,26.50
2019-02-18T07:24:27.917Z,24.15
2019-02-18T07:27:01.510Z,23.55
2019-02-18T07:29:36.039Z,23.77
2019-02-18T07:32:09.468Z,25.75
2019-02-18T07:34:42.956Z,28.42
2019-02-18T07:37:16.435Z,30.25
2019-02-18T07:39:49.984Z,26.93
2019-02-18T07:42:22.577Z,27.82
2019-02-18T07:44:55.638Z,25.88
2019-02-18T07:47:29.121Z,30.68
2019-02-18T07:50:01.773Z,22.58
2019-02-18T07:52:35.606Z,26.20
2019-02-18T07:55:08.695Z,28.00
2019-02-18T07:57:41.375Z,26.65
2019-02-18T08:00:15.092Z,26.40
2019-02-18T08:02:48.849Z,24.95
2019-02-18T08:05:21.386Z,24.47
2019-02-18T08:07:54.817Z,28.32
2019-02-18T08:10:27.846Z,25.45
2019-02-18T08:13:01.268Z,27.40
2019-02-18T08:15:34.782Z,23.70
2019-02-18T08:18:08.105Z,25.17
2019-02-18T08:20:41.128Z,23.07
2019-02-18T08:23:15.063Z,21.93
2019-02-18T08:25:49.055Z,19.85
2019-02-18T08:28:22.165Z,26.10
2019-02-18T08:30:55.943Z,22.58
2019-02-18T08:33:29.335Z,23.10
2019-02-18T08:36:02.834Z,23.92
2019-02-18T08:38:36.839Z,21.33
2019-02-18T08:41:09.835Z,22.07
2019-02-18T08:43:43.505Z,23.07
2019-02-18T08:46:16.625Z,17.82
2019-02-18T08:48:50.141Z,23.07
2019-02-18T08:51:23.396Z,21.25
2019-02-18T08:53:57.042Z,21.20
2019-02-18T08:56:30.353Z,23.57
2019-02-18T08:59:03.510Z,26.65
2019-02-18T09:01:37.114Z,17.70
2019-02-18T09:04:10.330Z,22.60
2019-02-18T09:06:43.840Z,24.10
2019-02-18T09:09:16.628Z,23.02
2019-02-18T09:11:50.618Z,20.60
2019-02-18T09:14:23.930Z,22.48
2019-02-18T09:16:58.700Z,19.90
2019-02-18T09:19:31.645Z,18.00
2019-02-18T09:22:23.122Z,25.95
2019-02-18T09:25:02.270Z,20.35
2019-02-18T09:27:35.453Z,20.57
2019-02-18T09:30:08.329Z,20.52
2019-02-18T09:32:41.421Z,23.25
2019-02-18T09:35:14.911Z,21.05
2019-02-18T09:37:48.202Z,20.45
2019-02-18T09:40:21.507Z,21.02
2019-02-18T09:42:55.132Z,19.48
2019-02-18T09:45:28.321Z,21.75
2019-02-18T09:48:00.903Z,19.45
2019-02-18T09:50:34.286Z,20.45
2019-02-18T09:53:07.681Z,17.57
2019-02-18T09:55:41.050Z,20.75
2019-02-18T09:58:14.871Z,18.35
2019-02-18T10:00:47.641Z,19.42
2019-02-18T10:03:31.039Z,23.35
2019-02-18T10:05:56.095Z,20.40
2019-02-18T10:08:29.200Z,16.45
2019-02-18T10:11:02.668Z,18.55
2019-02-18T10:13:36.559Z,19.45
2019-02-18T10:16:09.991Z,21.20
2019-02-18T10:18:43.911Z,20.33
2019-02-18T10:21:16.938Z,17.93
2019-02-18T10:23:50.337Z,16.57
2019-02-18T10:26:23.360Z,19.82
2019-02-18T10:28:57.091Z,23.52
2019-02-18T10:31:30.573Z,21.20
2019-02-18T10:34:03.853Z,19.83
2019-02-18T10:36:37.648Z,20.57
2019-02-18T10:39:11.901Z,20.10
2019-02-18T10:41:45.312Z,19.87
2019-02-18T10:44:18.281Z,17.73
2019-02-18T10:46:52.077Z,19.40
2019-02-18T10:49:25.622Z,20.13
2019-02-18T10:51:59.382Z,20.80
2019-02-18T10:54:32.982Z,16.33
2019-02-18T10:57:05.889Z,20.17
2019-02-18T10:59:39.294Z,18.17
2019-02-18T11:02:12.710Z,14.77
2019-02-18T11:04:46.323Z,15.37
2019-02-18T11:07:19.270Z,18.37
2019-02-18T11:09:52.481Z,22.33
2019-02-18T11:12:25.002Z,15.43
2019-02-18T11:14:58.458Z,14.47
2019-02-18T11:17:38.693Z,15.93
2019-02-18T11:20:07.305Z,18.57
2019-02-18T11:22:40.676Z,14.73
2019-02-18T11:25:13.396Z,16.20
2019-02-18T11:27:46.800Z,15.50
2019-02-18T11:30:19.946Z,13.37
2019-02-18T11:32:53.755Z,13.80
2019-02-18T11:35:26.952Z,15.00
2019-02-18T11:38:00.324Z,16.53
2019-02-18T11:40:33.490Z,16.83
2019-02-18T11:43:06.868Z,14.90
2019-02-18T11:45:40.427Z,14.53
2019-02-18T11:48:13.834Z,17.50
2019-02-18T11:50:47.014Z,16.87
2019-02-18T11:53:20.084Z,14.17
2019-02-18T11:55:53.803Z,15.77
2019-02-18T11:58:27.038Z,15.20
2019-02-18T12:01:00.088Z,17.57
2019-02-18T12:03:33.374Z,15.53
2019-02-18T12:06:06.589Z,15.33
2019-02-18T12:08:39.661Z,16.13
2019-02-18T12:11:13.481Z,15.93
2019-02-18T12:13:46.969Z,18.43
2019-02-18T12:16:20.549Z,19.33
2019-02-18T12:18:53.968Z,17.83
2019-02-18T12:21:27.097Z,16.50
2019-02-18T12:24:00.311Z,18.20
2019-02-18T12:26:33.746Z,19.60
2019-02-18T12:29:07.480Z,19.10
2019-02-18T12:31:40.921Z,17.63
2019-02-18T12:34:14.521Z,20.17
2019-02-18T12:36:47.570Z,22.57
2019-02-18T12:39:22.629Z,17.97
2019-02-18T12:41:55.367Z,14.67
2019-02-18T12:44:29.754Z,16.00
2019-02-18T12:47:05.429Z,15.83
2019-02-18T12:49:39.230Z,15.07
2019-02-18T12:52:12.432Z,14.20
2019-02-18T12:54:45.256Z,38.70
2019-02-18T12:57:18.403Z,20.60
2019-02-18T12:59:51.734Z,13.90
2019-02-18T13:02:25.292Z,13.80
2019-02-18T13:04:58.387Z,9.23
2019-02-18T13:07:31.378Z,8.47
2019-02-18T13:10:06.156Z,8.80
2019-02-18T13:12:38.565Z,9.97
2019-02-18T13:15:12.229Z,7.00
2019-02-18T13:17:45.329Z,8.20
2019-02-18T13:20:19.096Z,9.37
2019-02-18T13:22:53.624Z,7.53
2019-02-18T13:25:27.483Z,8.23
2019-02-18T13:28:08.299Z,8.70
2019-02-18T13:30:36.188Z,8.53
2019-02-18T13:33:09.432Z,9.30
2019-02-18T13:35:43.579Z,10.83
2019-02-18T13:38:17.559Z,8.23
2019-02-18T13:40:50.156Z,9.17
2019-02-18T13:43:23.966Z,8.60
2019-02-18T13:45:58.509Z,11.60
2019-02-18T13:48:46.423Z,9.53
2019-02-18T13:51:24.325Z,8.40
2019-02-18T13:53:55.080Z,9.93
2019-02-18T13:56:28.615Z,10.40
2019-02-18T13:59:01.759Z,8.10
2019-02-18T14:01:34.347Z,8.70
2019-02-18T14:04:07.329Z,7.60
2019-02-18T14:06:40.100Z,14.30
2019-02-18T14:09:13.602Z,10.37
2019-02-18T14:11:46.392Z,8.93
2019-02-18T14:14:19.878Z,7.87
2019-02-18T14:16:53.292Z,8.43
2019-02-18T14:19:26.378Z,7.67
2019-02-18T14:21:59.764Z,6.80
2019-02-18T14:24:33.277Z,8.73
2019-02-18T14:27:06.657Z,6.87
2019-02-18T14:29:40.553Z,9.10
2019-02-18T14:32:14.025Z,7.43
2019-02-18T14:34:49.284Z,8.67
2019-02-18T14:37:22.724Z,7.40
2019-02-18T14:39:56.207Z,7.50
2019-02-18T14:42:30.412Z,8.07
2019-02-18T14:45:03.726Z,7.90
2019-02-18T14:47:37.244Z,7.30
2019-02-18T14:50:11.308Z,9.90
2019-02-18T14:52:45.135Z,6.77
2019-02-18T14:55:18.588Z,7.83
2019-02-18T14:57:52.335Z,9.77
2019-02-18T15:00:25.162Z,7.37
2019-02-18T15:02:57.395Z,8.70
2019-02-18T15:05:31.801Z,7.13
2019-02-18T15:08:05.303Z,7.07
2019-02-18T15:10:38.434Z,7.13
2019-02-18T15:13:12.303Z,7.27
2019-02-18T15:15:45.743Z,6.70
2019-02-18T15:18:19.316Z,7.83
2019-02-18T15:20:52.836Z,11.77
2019-02-18T15:23:26.278Z,7.07
2019-02-18T15:25:59.913Z,8.67
2019-02-18T15:28:33.232Z,7.30
2019-02-18T15:31:06.399Z,12.67
2019-02-18T15:33:40.003Z,7.40
2019-02-18T15:36:12.253Z,9.70
2019-02-18T15:38:46.583Z,7.30
2019-02-18T15:41:19.890Z,7.93
2019-02-18T15:43:53.297Z,7.27
2019-02-18T15:46:26.029Z,7.47
2019-02-18T15:49:00.678Z,12.23
2019-02-18T15:51:33.790Z,6.67
2019-02-18T15:54:06.991Z,7.73
2019-02-18T15:56:39.976Z,9.13
2019-02-18T15:59:13.172Z,6.80
2019-02-18T16:01:47.091Z,8.30
2019-02-18T16:04:21.062Z,8.03
2019-02-18T16:06:54.861Z,10.53
2019-02-18T16:09:28.207Z,7.50
2019-02-18T16:12:02.003Z,9.80
2019-02-18T16:14:35.888Z,10.97
2019-02-18T16:17:09.223Z,10.60
2019-02-18T16:19:42.352Z,9.47
2019-02-18T16:22:16.330Z,13.33
2019-02-18T16:24:49.807Z,18.77
2019-02-18T16:27:23.418Z,18.93
2019-02-18T16:29:56.594Z,17.42
2019-02-18T16:32:30.168Z,20.32
2019-02-18T16:35:03.725Z,17.80
2019-02-18T16:37:38.108Z,17.85
2019-02-18T16:40:13.197Z,21.20
2019-02-18T16:42:46.248Z,20.35
2019-02-18T16:45:18.911Z,21.42
2019-02-18T16:47:53.291Z,21.17
2019-02-18T16:50:26.895Z,20.97
2019-02-18T16:53:00.269Z,20.17
2019-02-18T16:55:33.705Z,23.40
2019-02-18T16:58:06.865Z,23.62
2019-02-18T17:00:39.922Z,23.65
2019-02-18T17:03:13.033Z,25.88
2019-02-18T17:05:46.195Z,25.48
2019-02-18T17:08:20.281Z,21.30
2019-02-18T17:10:53.387Z,23.15
2019-02-18T17:13:26.978Z,22.70
2019-02-18T17:16:00.588Z,23.12
2019-02-18T17:18:32.841Z,20.23
2019-02-18T17:21:06.847Z,24.95
2019-02-18T17:23:39.899Z,24.50
2019-02-18T17:26:12.949Z,24.02
2019-02-18T17:28:45.940Z,19.50
2019-02-18T17:31:21.829Z,25.80
2019-02-18T17:33:55.131Z,23.38
2019-02-18T17:36:28.970Z,25.88
2019-02-18T17:39:02.437Z,25.00
2019-02-18T17:41:37.822Z,17.15
2019-02-18T17:44:11.035Z,20.70
2019-02-18T17:46:44.437Z,18.45
2019-02-18T17:49:17.562Z,25.88
2019-02-18T17:51:50.729Z,17.67
2019-02-18T17:54:23.808Z,16.93
2019-02-18T17:56:57.368Z,17.92
2019-02-18T17:59:30.776Z,16.07
2019-02-18T18:02:06.248Z,19.82
2019-02-18T18:04:39.866Z,20.27
2019-02-18T18:07:12.987Z,19.12
2019-02-18T18:09:46.119Z,17.75
2019-02-18T18:12:19.558Z,16.40
2019-02-18T18:14:52.859Z,17.98
2019-02-18T18:17:26.113Z,18.87
2019-02-18T18:19:59.442Z,20.50
2019-02-18T18:22:33.208Z,16.97
2019-02-18T18:25:06.733Z,16.27
2019-02-18T18:27:40.646Z,18.57
2019-02-18T18:30:14.625Z,17.42
2019-02-18T18:32:47.737Z,16.95
2019-02-18T18:35:21.440Z,18.07
2019-02-18T18:37:55.219Z,17.87
2019-02-18T18:40:28.232Z,18.42
2019-02-18T18:43:01.724Z,18.57
2019-02-18T18:45:36.266Z,18.25
2019-02-18T18:48:10.244Z,18.45
2019-02-18T18:50:43.530Z,15.30
2019-02-18T18:53:17.175Z,15.25
2019-02-18T18:55:50.975Z,14.50
2019-02-18T18:58:24.903Z,13.45
2019-02-18T19:00:58.391Z,21.52
2019-02-18T19:03:32.752Z,13.25
2019-02-18T19:06:06.189Z,12.50
2019-02-18T19:08:39.423Z,13.55
